Pagrindinis puslapis
METAR-TAF:

METAR-TAF

Oro uostai :

For de Fransas, Martinika

platuma: 14-36N, ilguma: 061-00W, Aukštis: 5 m

Dabartinis oras

Ataskaita buvo paskelbta 32 minutes, ne 22:30 UTC
Vėjas 6 kt iš Rytų/Šiaurės Rytų
Temperatūra 26°C
Drėgmė 70%
Slėgis 1014 hPa
Matomumas 10 km arba daugiau
nėra debesų žemiau 1500 m ir nėra kamuolinių lietaus debesų

METAR: TFFF 212230Z AUTO 07006KT CAVOK 26/20 Q1014 NOSIG

Laikas: 19:02 (23:02 UTC)

Prognozė

Ataskaita buvo paskelbta 7 valandos ir 2 minutes, ne 16:00 UTC
Prognozė galioja nuo 21 metu 18 UTC su 22 metu 18 UTC
Vėjas 12 kt iš Rytų/Pietryčių
Matomumas 10 km arba daugiau
Išsisklaidę debesys ne aukštis 3500 ft
Tapsmas
nuo 22 metu 01 UTC su 22 metu 03 UTC
Vėjas 4 kt nuo kintamojo kryptimis
Tikimybė 30% :
Laikinai
nuo 22 metu 03 UTC su 22 metu 12 UTC
Matomumas: 4000 m
Išsisklaidę debesys ne aukštis 2000 ft, aukštai iškilę kamuoliniai debesys.
lietus

TAF: TFFF 211600Z 2118/2218 12012KT 9999 SCT035 BECMG 2201/2203 VRB04KT PROB30 TEMPO 2203/2212 4000 SHRA SCT020TCU

Orai ataskaitas ir orų prognozės (METAR, TAF).

turimą stotys yra geltonos ir raudonos taškus žemėlapyje.

Perkelti pele per norėdami pamatyti stoties vardą.

Tada spustelėkite, norėdami matyti oro stebėjimo ir prognozės.

Norėdami pakeisti žemėlapį: spustelėkite ant žalios mygtukų su juodo kryžiaus žemyn,; žalią mygtuką su brūkšneliu, jei norite nutolinti; arba žalių rodyklių gretimoms žemėlapius.


METAR-TAF: